createdAt,value
2018-03-18T00:00:45.849Z,91.30
2018-03-18T00:03:14.119Z,90.10
2018-03-18T00:05:43.204Z,89.60
2018-03-18T00:08:11.444Z,89.60
2018-03-18T00:10:39.654Z,89.40
2018-03-18T00:13:08.022Z,89.60
2018-03-18T00:15:36.928Z,90.00
2018-03-18T00:18:05.302Z,89.50
2018-03-18T00:20:33.580Z,89.80
2018-03-18T00:23:02.014Z,90.00
2018-03-18T00:25:32.573Z,89.10
2018-03-18T00:28:02.209Z,89.10
2018-03-18T00:30:30.681Z,88.90
2018-03-18T00:32:59.149Z,87.00
2018-03-18T00:35:28.048Z,85.80
2018-03-18T00:37:56.343Z,84.20
2018-03-18T00:40:24.578Z,82.50
2018-03-18T00:42:56.581Z,82.10
2018-03-18T00:45:24.821Z,81.80
2018-03-18T00:47:53.071Z,80.90
2018-03-18T00:50:22.134Z,80.50
2018-03-18T00:52:51.253Z,80.50
2018-03-18T00:55:20.726Z,79.90
2018-03-18T00:57:48.981Z,81.20
2018-03-18T01:00:17.375Z,80.50
2018-03-18T01:02:45.636Z,80.60
2018-03-18T01:05:14.799Z,80.60
2018-03-18T01:07:43.431Z,80.60
2018-03-18T01:10:12.645Z,80.00
2018-03-18T01:12:41.724Z,81.40
2018-03-18T01:15:12.588Z,81.40
2018-03-18T01:17:41.678Z,81.10
2018-03-18T01:20:15.553Z,81.10
2018-03-18T01:22:49.496Z,80.50
2018-03-18T01:25:21.478Z,79.90
2018-03-18T01:27:55.456Z,80.40
2018-03-18T01:30:24.555Z,81.20
2018-03-18T01:32:54.569Z,81.20
2018-03-18T01:35:22.834Z,81.50
2018-03-18T01:38:07.908Z,79.80
2018-03-18T01:40:37.960Z,79.80
2018-03-18T01:43:17.011Z,79.70
2018-03-18T01:45:45.671Z,80.50
2018-03-18T01:48:16.121Z,80.80
2018-03-18T01:50:47.252Z,81.00
2018-03-18T01:53:22.298Z,80.70
2018-03-18T01:55:51.049Z,80.10
2018-03-18T01:58:19.348Z,79.80
2018-03-18T02:00:47.932Z,79.20
2018-03-18T02:03:18.262Z,79.90
2018-03-18T02:05:46.839Z,79.20
2018-03-18T02:08:15.222Z,79.00
2018-03-18T02:10:44.360Z,79.20
2018-03-18T02:13:12.677Z,78.50
2018-03-18T02:15:40.898Z,78.40
2018-03-18T02:18:09.236Z,79.00
2018-03-18T02:20:37.516Z,79.10
2018-03-18T02:23:05.726Z,78.70
2018-03-18T02:25:33.962Z,79.00
2018-03-18T02:28:02.177Z,78.70
2018-03-18T02:30:31.312Z,79.00
2018-03-18T02:32:59.552Z,78.70
2018-03-18T02:35:28.596Z,79.00
2018-03-18T02:37:56.896Z,79.00
2018-03-18T02:40:25.882Z,78.80
2018-03-18T02:42:54.517Z,78.80
2018-03-18T02:45:23.880Z,78.10
2018-03-18T02:47:52.090Z,78.10
2018-03-18T02:50:21.070Z,78.40
2018-03-18T02:52:49.425Z,77.60
2018-03-18T02:55:17.684Z,78.80
2018-03-18T02:57:46.026Z,79.00
2018-03-18T03:00:15.061Z,78.50
2018-03-18T03:02:43.439Z,78.50
2018-03-18T03:05:11.650Z,77.60
2018-03-18T03:07:41.252Z,78.20
2018-03-18T03:10:09.841Z,77.80
2018-03-18T03:12:39.584Z,78.10
2018-03-18T03:15:08.633Z,77.60
2018-03-18T03:17:36.864Z,77.60
2018-03-18T03:20:05.997Z,78.40
2018-03-18T03:22:35.445Z,78.40
2018-03-18T03:25:04.343Z,79.10
2018-03-18T03:27:33.356Z,78.10
2018-03-18T03:30:01.974Z,78.10
2018-03-18T03:32:30.208Z,77.90
2018-03-18T03:34:59.961Z,78.40
2018-03-18T03:37:28.633Z,78.30
2018-03-18T03:39:56.867Z,78.10
2018-03-18T03:42:25.526Z,78.00
2018-03-18T03:44:55.287Z,79.00
2018-03-18T03:47:23.709Z,79.00
2018-03-18T03:49:51.935Z,78.30
2018-03-18T03:52:21.686Z,77.90
2018-03-18T03:54:50.691Z,77.90
2018-03-18T03:57:18.991Z,79.00
2018-03-18T03:59:47.768Z,78.10
2018-03-18T04:02:16.356Z,77.80
2018-03-18T04:04:44.598Z,79.00
2018-03-18T04:07:12.843Z,78.70
2018-03-18T04:09:41.038Z,78.30
2018-03-18T04:12:10.257Z,78.70
2018-03-18T04:14:38.553Z,78.00
2018-03-18T04:17:09.052Z,78.20
2018-03-18T04:19:37.370Z,78.90
2018-03-18T04:22:05.607Z,79.00
2018-03-18T04:24:33.897Z,78.10
2018-03-18T04:27:02.249Z,78.30
2018-03-18T04:29:31.226Z,79.20
2018-03-18T04:31:59.979Z,79.10
2018-03-18T04:34:28.212Z,78.10
2018-03-18T04:36:56.524Z,78.60
2018-03-18T04:39:27.244Z,78.80
2018-03-18T04:41:55.716Z,78.40
2018-03-18T04:44:24.540Z,77.90
2018-03-18T04:46:52.822Z,78.90
2018-03-18T04:49:21.362Z,78.80
2018-03-18T04:51:49.772Z,79.00
2018-03-18T04:54:19.504Z,78.60
2018-03-18T04:56:47.764Z,78.50
2018-03-18T04:59:16.358Z,78.50
2018-03-18T05:01:45.714Z,78.00
2018-03-18T05:04:17.001Z,78.00
2018-03-18T05:06:45.214Z,78.00
2018-03-18T05:09:14.302Z,76.70
2018-03-18T05:11:42.748Z,76.60
2018-03-18T05:14:10.989Z,76.50
2018-03-18T05:16:39.422Z,76.60
2018-03-18T05:19:08.445Z,76.80
2018-03-18T05:21:38.471Z,76.40
2018-03-18T05:24:07.692Z,76.50
2018-03-18T05:26:35.947Z,76.50
2018-03-18T05:29:04.274Z,75.70
2018-03-18T05:31:33.163Z,75.60
2018-03-18T05:34:01.571Z,75.10
2018-03-18T05:36:29.843Z,75.00
2018-03-18T05:38:58.239Z,75.20
2018-03-18T05:41:27.405Z,74.70
2018-03-18T05:43:55.656Z,74.60
2018-03-18T05:46:23.983Z,75.00
2018-03-18T05:48:52.259Z,75.40
2018-03-18T05:51:20.935Z,75.00
2018-03-18T05:53:49.508Z,75.20
2018-03-18T05:56:17.904Z,75.40
2018-03-18T05:58:46.185Z,75.00
2018-03-18T06:01:17.242Z,74.60
2018-03-18T06:03:45.483Z,74.60
2018-03-18T06:06:13.800Z,74.20
2018-03-18T06:08:42.838Z,73.40
2018-03-18T06:11:11.072Z,73.40
2018-03-18T06:13:41.045Z,73.80
2018-03-18T06:16:09.324Z,73.00
2018-03-18T06:18:37.554Z,72.70
2018-03-18T06:21:06.698Z,72.30
2018-03-18T06:23:35.947Z,71.50
2018-03-18T06:26:05.088Z,71.40
2018-03-18T06:28:33.336Z,71.40
2018-03-18T06:31:01.736Z,71.30
2018-03-18T06:33:30.037Z,71.20
2018-03-18T06:35:58.528Z,71.10
2018-03-18T06:38:28.138Z,71.30
2018-03-18T06:40:56.423Z,70.70
2018-03-18T06:43:24.673Z,70.70
2018-03-18T06:45:52.954Z,71.20
2018-03-18T06:48:21.328Z,70.30
2018-03-18T06:50:50.741Z,69.70
2018-03-18T06:53:19.014Z,71.20
2018-03-18T06:55:47.461Z,70.70
2018-03-18T06:58:17.261Z,69.80
2018-03-18T07:00:46.300Z,70.10
2018-03-18T07:03:15.588Z,70.30
2018-03-18T07:05:45.140Z,68.70
2018-03-18T07:08:13.512Z,68.70
2018-03-18T07:10:42.788Z,69.10
2018-03-18T07:13:11.212Z,69.00
2018-03-18T07:15:39.463Z,69.30
2018-03-18T07:18:08.515Z,67.90
2018-03-18T07:20:37.508Z,68.00
2018-03-18T07:23:07.329Z,68.90
2018-03-18T07:25:38.362Z,68.80
2018-03-18T07:28:06.595Z,67.90
2018-03-18T07:30:34.839Z,67.40
2018-03-18T07:33:05.029Z,66.80
2018-03-18T07:35:34.112Z,68.40
2018-03-18T07:38:03.261Z,68.30
2018-03-18T07:40:34.527Z,67.60
2018-03-18T07:43:04.128Z,67.50
2018-03-18T07:45:33.221Z,66.50
2018-03-18T07:48:01.492Z,66.50
2018-03-18T07:50:29.805Z,66.60
2018-03-18T07:52:59.127Z,66.50
2018-03-18T07:55:28.152Z,66.40
2018-03-18T07:57:57.164Z,65.70
2018-03-18T08:00:25.400Z,67.00
2018-03-18T08:02:55.678Z,65.50
2018-03-18T08:05:24.877Z,64.20
2018-03-18T08:07:53.235Z,64.20
2018-03-18T08:10:21.609Z,65.30
2018-03-18T08:12:49.810Z,64.60
2018-03-18T08:15:19.229Z,64.60
2018-03-18T08:17:48.448Z,63.40
2018-03-18T08:20:17.484Z,65.60
2018-03-18T08:22:45.743Z,64.90
2018-03-18T08:25:14.031Z,65.20
2018-03-18T08:27:42.323Z,64.90
2018-03-18T08:30:10.579Z,65.10
2018-03-18T08:32:39.624Z,64.90
2018-03-18T08:35:08.653Z,66.60
2018-03-18T08:37:37.892Z,65.30
2018-03-18T08:40:06.363Z,65.30
2018-03-18T08:42:34.668Z,63.70
2018-03-18T08:45:02.910Z,63.70
2018-03-18T08:47:31.316Z,63.10
2018-03-18T08:49:59.537Z,63.50
2018-03-18T08:52:29.842Z,63.20
2018-03-18T08:54:58.955Z,65.00
2018-03-18T08:57:27.362Z,64.20
2018-03-18T08:59:56.194Z,63.80
2018-03-18T09:02:24.438Z,63.30
2018-03-18T09:04:52.720Z,65.40
2018-03-18T09:07:21.147Z,65.40
2018-03-18T09:09:50.243Z,65.40
2018-03-18T09:12:19.041Z,65.40
2018-03-18T09:14:48.838Z,67.00
2018-03-18T09:17:17.138Z,67.00
2018-03-18T09:19:45.570Z,67.50
2018-03-18T09:22:14.503Z,66.40
2018-03-18T09:24:42.824Z,67.00
2018-03-18T09:27:11.089Z,65.90
2018-03-18T09:29:40.232Z,65.70
2018-03-18T09:32:09.408Z,66.50
2018-03-18T09:34:37.967Z,65.90
2018-03-18T09:37:06.235Z,69.00
2018-03-18T09:39:35.667Z,68.40
2018-03-18T09:42:03.913Z,68.40
2018-03-18T09:44:32.919Z,67.30
2018-03-18T09:47:01.893Z,67.80
2018-03-18T09:49:30.170Z,67.80
2018-03-18T09:51:59.188Z,63.00
2018-03-18T09:54:27.439Z,63.00
2018-03-18T09:56:55.746Z,63.30
2018-03-18T09:59:23.948Z,62.60
2018-03-18T10:01:52.285Z,64.10
2018-03-18T10:04:21.421Z,63.60
2018-03-18T10:06:49.662Z,63.60
2018-03-18T10:09:18.181Z,62.30
2018-03-18T10:11:47.170Z,63.80
2018-03-18T10:14:15.451Z,63.20
2018-03-18T10:16:44.685Z,62.50
2018-03-18T10:19:13.874Z,61.70
2018-03-18T10:21:42.127Z,62.50
2018-03-18T10:24:10.383Z,61.90
2018-03-18T10:26:39.014Z,62.90
2018-03-18T10:29:08.423Z,62.10
2018-03-18T10:31:37.385Z,62.10
2018-03-18T10:34:05.683Z,61.30
2018-03-18T10:36:34.040Z,62.60
2018-03-18T10:39:02.500Z,62.50
2018-03-18T10:41:30.728Z,62.40
2018-03-18T10:43:59.089Z,61.80
2018-03-18T10:46:28.207Z,62.30
2018-03-18T10:48:56.449Z,61.50
2018-03-18T10:51:24.888Z,62.10
2018-03-18T10:53:53.930Z,62.60
2018-03-18T10:56:22.230Z,62.60
2018-03-18T10:58:50.591Z,61.60
2018-03-18T11:01:24.611Z,61.90
2018-03-18T11:03:58.520Z,62.20
2018-03-18T11:06:26.808Z,61.50
2018-03-18T11:08:55.118Z,62.20
2018-03-18T11:11:24.328Z,61.20
2018-03-18T11:13:52.834Z,61.20
2018-03-18T11:16:21.116Z,63.10
2018-03-18T11:18:50.303Z,61.50
2018-03-18T11:21:18.705Z,61.60
2018-03-18T11:23:47.048Z,61.70
2018-03-18T11:26:15.327Z,60.70
2018-03-18T11:28:43.651Z,62.30
2018-03-18T11:31:15.660Z,61.40
2018-03-18T11:33:44.886Z,61.20
2018-03-18T11:36:13.120Z,61.30
2018-03-18T11:38:41.459Z,61.90
2018-03-18T11:41:11.904Z,62.40
2018-03-18T11:43:40.285Z,63.00
2018-03-18T11:46:09.516Z,61.50
2018-03-18T11:48:38.634Z,63.20
2018-03-18T11:51:06.947Z,63.20
2018-03-18T11:53:35.335Z,62.60
2018-03-18T11:56:04.373Z,63.00
2018-03-18T11:58:33.003Z,60.90
2018-03-18T12:01:02.053Z,62.30
2018-03-18T12:03:30.298Z,61.30
2018-03-18T12:05:58.696Z,61.10
2018-03-18T12:08:39.629Z,61.40
2018-03-18T12:11:08.643Z,60.10
2018-03-18T12:13:36.929Z,61.20
2018-03-18T12:16:05.981Z,60.10
2018-03-18T12:18:34.313Z,60.20
2018-03-18T12:21:03.472Z,60.10
2018-03-18T12:23:31.786Z,59.50
2018-03-18T12:26:00.225Z,59.50
2018-03-18T12:28:28.536Z,61.00
2018-03-18T12:30:57.374Z,59.10
2018-03-18T12:33:25.802Z,59.20
2018-03-18T12:35:54.045Z,58.30
2018-03-18T12:38:22.291Z,59.10
2018-03-18T12:40:53.348Z,58.00
2018-03-18T12:43:32.618Z,58.00
2018-03-18T12:46:00.990Z,59.80
2018-03-18T12:48:29.244Z,59.10
2018-03-18T12:50:57.507Z,59.20
2018-03-18T12:53:26.544Z,59.90
2018-03-18T12:55:54.956Z,59.90
2018-03-18T12:58:23.975Z,60.00
2018-03-18T13:00:52.286Z,59.90
2018-03-18T13:03:20.781Z,59.50
2018-03-18T13:05:50.384Z,59.90
2018-03-18T13:08:18.793Z,59.90
2018-03-18T13:10:49.286Z,61.10
2018-03-18T13:13:18.198Z,61.10
2018-03-18T13:15:49.514Z,59.40
2018-03-18T13:18:18.658Z,59.30
2018-03-18T13:20:47.860Z,60.20
2018-03-18T13:23:17.443Z,60.40
2018-03-18T13:25:45.852Z,59.90
2018-03-18T13:28:14.900Z,59.50
2018-03-18T13:30:43.224Z,59.50
2018-03-18T13:33:12.948Z,60.70
2018-03-18T13:35:41.217Z,60.60
2018-03-18T13:38:11.038Z,60.40
2018-03-18T13:40:39.432Z,60.40
2018-03-18T13:43:08.442Z,61.70
2018-03-18T13:45:36.739Z,61.50
2018-03-18T13:48:04.998Z,62.30
2018-03-18T13:50:33.259Z,60.30
2018-03-18T13:53:01.646Z,60.70
2018-03-18T13:55:29.930Z,61.80
2018-03-18T13:57:58.170Z,61.30
2018-03-18T14:00:26.471Z,61.30
2018-03-18T14:02:55.501Z,61.70
2018-03-18T14:05:23.817Z,61.70
2018-03-18T14:07:52.858Z,62.80
2018-03-18T14:10:21.265Z,62.80
2018-03-18T14:12:49.631Z,63.10
2018-03-18T14:15:18.861Z,62.60
2018-03-18T14:17:47.208Z,63.80
2018-03-18T14:20:15.508Z,62.50
2018-03-18T14:22:46.611Z,61.50
2018-03-18T14:25:16.660Z,61.60
2018-03-18T14:27:45.021Z,62.30
2018-03-18T14:30:14.036Z,61.20
2018-03-18T14:32:42.323Z,63.10
2018-03-18T14:35:11.463Z,62.10
2018-03-18T14:37:40.495Z,62.20
2018-03-18T14:40:08.795Z,62.20
2018-03-18T14:42:37.407Z,60.80
2018-03-18T14:45:06.640Z,61.60
2018-03-18T14:47:34.953Z,61.50
2018-03-18T14:50:04.039Z,62.60
2018-03-18T14:52:32.347Z,63.90
2018-03-18T14:55:01.520Z,61.70
2018-03-18T14:57:29.764Z,61.70
2018-03-18T14:59:57.997Z,61.00
2018-03-18T15:02:26.290Z,60.50
2018-03-18T15:04:55.330Z,61.70
2018-03-18T15:07:23.721Z,61.70
2018-03-18T15:09:51.970Z,60.70
2018-03-18T15:12:20.416Z,61.50
2018-03-18T15:14:48.631Z,62.80
2018-03-18T15:17:16.886Z,61.70
2018-03-18T15:19:45.212Z,63.10
2018-03-18T15:22:13.987Z,63.30
2018-03-18T15:24:42.247Z,63.70
2018-03-18T15:27:11.250Z,64.20
2018-03-18T15:29:39.500Z,64.90
2018-03-18T15:32:09.976Z,65.00
2018-03-18T15:34:38.937Z,64.30
2018-03-18T15:37:07.323Z,64.20
2018-03-18T15:39:35.937Z,65.50
2018-03-18T15:42:04.219Z,64.20
2018-03-18T15:44:32.500Z,63.30
2018-03-18T15:47:00.777Z,62.80
2018-03-18T15:49:29.034Z,63.30
2018-03-18T15:51:57.420Z,65.10
2018-03-18T15:54:25.686Z,62.50
2018-03-18T15:56:54.761Z,63.30
2018-03-18T15:59:23.763Z,63.60
2018-03-18T16:01:52.003Z,63.50
2018-03-18T16:04:20.904Z,63.20
2018-03-18T16:06:49.906Z,62.00
2018-03-18T16:09:18.185Z,61.90
2018-03-18T16:11:46.462Z,62.10
2018-03-18T16:14:14.688Z,61.60
2018-03-18T16:16:43.048Z,61.00
2018-03-18T16:19:11.474Z,61.90
2018-03-18T16:21:41.778Z,60.90
2018-03-18T16:24:10.052Z,60.90
2018-03-18T16:26:38.346Z,62.60
2018-03-18T16:29:18.292Z,64.00
2018-03-18T16:31:46.675Z,61.60
2018-03-18T16:34:14.947Z,62.10
2018-03-18T16:36:44.023Z,61.80
2018-03-18T16:39:13.192Z,61.90
2018-03-18T16:41:41.493Z,61.90
2018-03-18T16:44:09.919Z,62.80
2018-03-18T16:46:39.190Z,64.50
2018-03-18T16:49:07.608Z,64.50
2018-03-18T16:51:36.687Z,61.30
2018-03-18T16:54:05.181Z,61.30
2018-03-18T16:56:41.351Z,61.40
2018-03-18T16:59:14.077Z,61.00
2018-03-18T17:01:44.299Z,62.70
2018-03-18T17:04:15.444Z,63.70
2018-03-18T17:06:45.175Z,63.60
2018-03-18T17:09:16.242Z,62.40
2018-03-18T17:11:47.022Z,61.80
2018-03-18T17:14:17.482Z,61.80
2018-03-18T17:16:47.150Z,61.80
2018-03-18T17:19:16.761Z,63.40
2018-03-18T17:21:48.161Z,63.90
2018-03-18T17:24:21.711Z,62.40
2018-03-18T17:26:52.839Z,62.40
2018-03-18T17:29:22.493Z,62.70
2018-03-18T17:31:52.786Z,63.30
2018-03-18T17:34:25.354Z,63.40
2018-03-18T17:36:56.089Z,63.50
2018-03-18T17:39:28.983Z,63.40
2018-03-18T17:41:58.365Z,64.40
2018-03-18T17:44:38.392Z,64.10
2018-03-18T17:47:18.924Z,64.80
2018-03-18T17:49:59.006Z,64.40
2018-03-18T17:52:39.730Z,63.70
2018-03-18T17:55:19.807Z,62.70
2018-03-18T17:57:48.174Z,64.20
2018-03-18T18:00:16.430Z,63.30
2018-03-18T18:02:44.850Z,63.70
2018-03-18T18:05:14.104Z,63.60
2018-03-18T18:07:42.340Z,63.90
2018-03-18T18:10:10.719Z,64.20
2018-03-18T18:12:39.020Z,63.00
2018-03-18T18:15:08.306Z,63.20
2018-03-18T18:17:37.509Z,63.20
2018-03-18T18:20:08.206Z,63.30
2018-03-18T18:22:37.227Z,63.80
2018-03-18T18:25:05.497Z,62.50
2018-03-18T18:27:33.772Z,63.60
2018-03-18T18:30:02.268Z,63.30
2018-03-18T18:32:30.643Z,63.60
2018-03-18T18:34:58.915Z,63.10
2018-03-18T18:37:27.196Z,63.60
2018-03-18T18:39:56.175Z,62.50
2018-03-18T18:42:24.449Z,61.80
2018-03-18T18:44:52.808Z,62.60
2018-03-18T18:47:22.404Z,61.70
2018-03-18T18:49:51.521Z,63.10
2018-03-18T18:52:19.826Z,63.10
2018-03-18T18:54:48.149Z,62.40
2018-03-18T18:57:17.257Z,63.20
2018-03-18T18:59:46.304Z,63.50
2018-03-18T19:02:14.611Z,63.30
2018-03-18T19:04:42.873Z,63.90
2018-03-18T19:07:11.257Z,65.10
2018-03-18T19:09:39.513Z,63.60
2018-03-18T19:12:08.909Z,62.60
2018-03-18T19:14:37.163Z,63.80
2018-03-18T19:17:06.224Z,62.20
2018-03-18T19:19:35.299Z,61.60
2018-03-18T19:22:03.622Z,61.60
2018-03-18T19:24:33.227Z,62.80
2018-03-18T19:27:02.487Z,62.20
2018-03-18T19:29:30.752Z,62.10
2018-03-18T19:31:58.985Z,62.20
2018-03-18T19:34:28.010Z,63.00
2018-03-18T19:36:56.337Z,63.00
2018-03-18T19:39:25.602Z,62.50
2018-03-18T19:41:55.449Z,61.90
2018-03-18T19:44:23.780Z,61.80
2018-03-18T19:46:52.052Z,62.00
2018-03-18T19:49:20.357Z,62.00
2018-03-18T19:51:48.779Z,61.20
2018-03-18T19:54:17.208Z,62.70
2018-03-18T19:56:45.547Z,62.70
2018-03-18T19:59:13.817Z,62.50
2018-03-18T20:01:42.158Z,63.10
2018-03-18T20:04:10.573Z,62.80
2018-03-18T20:06:39.703Z,62.10
2018-03-18T20:09:08.012Z,62.00
2018-03-18T20:11:36.306Z,62.30
2018-03-18T20:14:04.701Z,62.40
2018-03-18T20:16:32.967Z,62.50
2018-03-18T20:19:01.238Z,60.90
2018-03-18T20:21:29.530Z,61.00
2018-03-18T20:23:57.887Z,61.50
2018-03-18T20:26:27.172Z,60.30
2018-03-18T20:28:55.501Z,60.70
2018-03-18T20:31:24.522Z,60.20
2018-03-18T20:33:53.188Z,60.20
2018-03-18T20:36:22.252Z,60.40
2018-03-18T20:38:50.810Z,60.40
2018-03-18T20:41:19.181Z,60.90
2018-03-18T20:43:47.641Z,61.10
2018-03-18T20:46:16.692Z,62.10
2018-03-18T20:48:45.147Z,61.40
2018-03-18T20:51:14.033Z,60.50
2018-03-18T20:53:43.031Z,60.40
2018-03-18T20:56:11.424Z,60.00
2018-03-18T20:58:39.726Z,60.60
2018-03-18T21:01:08.827Z,61.40
2018-03-18T21:03:38.224Z,61.30
2018-03-18T21:06:09.868Z,62.40
2018-03-18T21:08:38.563Z,62.30
2018-03-18T21:11:06.800Z,61.80
2018-03-18T21:13:35.110Z,62.50
2018-03-18T21:16:03.479Z,61.90
2018-03-18T21:18:32.692Z,62.80
2018-03-18T21:21:00.943Z,62.80
2018-03-18T21:23:29.435Z,62.30
2018-03-18T21:25:57.684Z,61.50
2018-03-18T21:28:25.922Z,61.80
2018-03-18T21:30:54.263Z,61.30
2018-03-18T21:33:22.670Z,61.90
2018-03-18T21:35:50.925Z,62.30
2018-03-18T21:38:19.153Z,62.00
2018-03-18T21:40:47.550Z,60.80
2018-03-18T21:43:15.868Z,61.60
2018-03-18T21:45:44.075Z,61.10
2018-03-18T21:48:13.057Z,61.70
2018-03-18T21:50:41.461Z,61.60
2018-03-18T21:53:09.743Z,60.60
2018-03-18T21:55:38.735Z,61.80
2018-03-18T21:58:07.890Z,61.60
2018-03-18T22:00:36.252Z,61.60
2018-03-18T22:03:04.551Z,61.30
2018-03-18T22:05:32.903Z,60.50
2018-03-18T22:08:01.114Z,60.30
2018-03-18T22:10:29.362Z,59.80
2018-03-18T22:12:57.572Z,59.60
2018-03-18T22:15:26.632Z,59.70
2018-03-18T22:17:55.051Z,59.70
2018-03-18T22:20:24.874Z,60.40
2018-03-18T22:22:56.590Z,59.70
2018-03-18T22:25:24.968Z,60.40
2018-03-18T22:27:53.446Z,59.20
2018-03-18T22:30:21.692Z,59.60
2018-03-18T22:32:49.932Z,59.70
2018-03-18T22:35:19.842Z,59.70
2018-03-18T22:37:48.109Z,59.60
2018-03-18T22:40:16.318Z,59.70
2018-03-18T22:42:46.200Z,60.20
2018-03-18T22:45:15.316Z,60.90
2018-03-18T22:47:43.617Z,60.20
2018-03-18T22:50:12.620Z,59.70
2018-03-18T22:52:40.958Z,59.70
2018-03-18T22:55:09.200Z,59.80
2018-03-18T22:57:37.458Z,59.80
2018-03-18T23:00:05.774Z,60.20
2018-03-18T23:02:34.156Z,60.50
2018-03-18T23:05:03.363Z,60.40
2018-03-18T23:07:31.853Z,60.50
2018-03-18T23:10:00.054Z,61.20
2018-03-18T23:12:28.485Z,61.80
2018-03-18T23:14:56.867Z,61.80
2018-03-18T23:17:25.129Z,61.90
2018-03-18T23:19:53.514Z,62.10
2018-03-18T23:22:21.751Z,62.10
2018-03-18T23:24:50.861Z,61.30
2018-03-18T23:27:20.007Z,60.80
2018-03-18T23:29:48.806Z,60.80
2018-03-18T23:32:17.231Z,61.20
2018-03-18T23:34:45.457Z,61.40
2018-03-18T23:37:13.721Z,62.00
2018-03-18T23:39:41.983Z,62.50
2018-03-18T23:42:10.239Z,61.60
2018-03-18T23:44:39.264Z,61.50
2018-03-18T23:47:07.479Z,61.50
2018-03-18T23:49:35.778Z,62.70
2018-03-18T23:52:04.514Z,62.70
2018-03-18T23:54:32.773Z,62.50
2018-03-18T23:57:01.023Z,62.70
2018-03-18T23:59:29.276Z,62.70
